sensor_id;sensor_type;location;lat;lon;timestamp;P1;durP1;ratioP1;P2;durP2;ratioP2
11805;SDS011;5960;42.602;23.482;2022-11-20T00:01:16;6.07;;;3.15;;
11805;SDS011;5960;42.602;23.482;2022-11-20T00:03:45;6.47;;;3.15;;
11805;SDS011;5960;42.602;23.482;2022-11-20T00:06:14;8.55;;;3.40;;
11805;SDS011;5960;42.602;23.482;2022-11-20T00:08:43;3.95;;;2.47;;
11805;SDS011;5960;42.602;23.482;2022-11-20T00:11:10;4.88;;;2.50;;
11805;SDS011;5960;42.602;23.482;2022-11-20T00:13:38;4.47;;;2.58;;
11805;SDS011;5960;42.602;23.482;2022-11-20T00:16:06;5.35;;;2.50;;
11805;SDS011;5960;42.602;23.482;2022-11-20T00:18:35;2.90;;;2.22;;
11805;SDS011;5960;42.602;23.482;2022-11-20T00:21:04;9.90;;;4.45;;
11805;SDS011;5960;42.602;23.482;2022-11-20T00:23:32;3.45;;;2.65;;
11805;SDS011;5960;42.602;23.482;2022-11-20T00:26:01;3.03;;;2.17;;
11805;SDS011;5960;42.602;23.482;2022-11-20T00:28:29;4.18;;;2.13;;
11805;SDS011;5960;42.602;23.482;2022-11-20T00:31:00;3.20;;;1.88;;
11805;SDS011;5960;42.602;23.482;2022-11-20T00:33:28;3.58;;;2.22;;
11805;SDS011;5960;42.602;23.482;2022-11-20T00:35:58;6.65;;;3.65;;
11805;SDS011;5960;42.602;23.482;2022-11-20T00:38:27;2.97;;;2.20;;
11805;SDS011;5960;42.602;23.482;2022-11-20T00:40:57;3.30;;;2.25;;
11805;SDS011;5960;42.602;23.482;2022-11-20T00:43:24;3.97;;;2.15;;
11805;SDS011;5960;42.602;23.482;2022-11-20T00:45:55;6.35;;;3.30;;
11805;SDS011;5960;42.602;23.482;2022-11-20T00:48:23;4.35;;;2.40;;
11805;SDS011;5960;42.602;23.482;2022-11-20T00:50:49;3.78;;;2.08;;
11805;SDS011;5960;42.602;23.482;2022-11-20T00:53:16;3.50;;;2.45;;
11805;SDS011;5960;42.602;23.482;2022-11-20T00:55:44;5.68;;;2.70;;
11805;SDS011;5960;42.602;23.482;2022-11-20T00:58:19;4.63;;;2.20;;
11805;SDS011;5960;42.602;23.482;2022-11-20T01:00:46;3.60;;;2.20;;
11805;SDS011;5960;42.602;23.482;2022-11-20T01:03:12;4.90;;;2.22;;
11805;SDS011;5960;42.602;23.482;2022-11-20T01:05:39;4.35;;;2.85;;
11805;SDS011;5960;42.602;23.482;2022-11-20T01:08:06;5.32;;;2.45;;
11805;SDS011;5960;42.602;23.482;2022-11-20T01:10:32;2.50;;;2.13;;
11805;SDS011;5960;42.602;23.482;2022-11-20T01:13:00;3.78;;;1.98;;
11805;SDS011;5960;42.602;23.482;2022-11-20T01:15:45;2.70;;;1.90;;
11805;SDS011;5960;42.602;23.482;2022-11-20T01:18:11;3.55;;;2.05;;
11805;SDS011;5960;42.602;23.482;2022-11-20T01:20:38;4.70;;;2.10;;
11805;SDS011;5960;42.602;23.482;2022-11-20T01:23:05;4.03;;;2.47;;
11805;SDS011;5960;42.602;23.482;2022-11-20T01:25:32;6.53;;;3.38;;
11805;SDS011;5960;42.602;23.482;2022-11-20T01:28:01;4.38;;;2.03;;
11805;SDS011;5960;42.602;23.482;2022-11-20T01:30:28;4.45;;;1.88;;
11805;SDS011;5960;42.602;23.482;2022-11-20T01:32:55;4.97;;;2.30;;
11805;SDS011;5960;42.602;23.482;2022-11-20T01:35:22;6.25;;;2.70;;
11805;SDS011;5960;42.602;23.482;2022-11-20T01:37:49;5.82;;;2.22;;
11805;SDS011;5960;42.602;23.482;2022-11-20T01:40:16;2.40;;;1.73;;
11805;SDS011;5960;42.602;23.482;2022-11-20T01:42:44;7.90;;;3.78;;
11805;SDS011;5960;42.602;23.482;2022-11-20T01:48:30;3.13;;;1.85;;
11805;SDS011;5960;42.602;23.482;2022-11-20T01:51:02;2.53;;;1.38;;
11805;SDS011;5960;42.602;23.482;2022-11-20T01:53:31;2.80;;;1.60;;
11805;SDS011;5960;42.602;23.482;2022-11-20T01:56:01;4.32;;;2.10;;
11805;SDS011;5960;42.602;23.482;2022-11-20T01:58:32;4.60;;;2.53;;
11805;SDS011;5960;42.602;23.482;2022-11-20T02:01:06;3.80;;;1.70;;
11805;SDS011;5960;42.602;23.482;2022-11-20T02:03:33;3.17;;;2.08;;
11805;SDS011;5960;42.602;23.482;2022-11-20T02:06:02;3.47;;;1.73;;
11805;SDS011;5960;42.602;23.482;2022-11-20T02:08:34;5.45;;;2.30;;
11805;SDS011;5960;42.602;23.482;2022-11-20T02:11:03;5.55;;;2.10;;
11805;SDS011;5960;42.602;23.482;2022-11-20T02:13:30;3.22;;;1.60;;
11805;SDS011;5960;42.602;23.482;2022-11-20T02:16:15;2.78;;;2.28;;
11805;SDS011;5960;42.602;23.482;2022-11-20T02:18:45;5.63;;;2.25;;
11805;SDS011;5960;42.602;23.482;2022-11-20T02:21:16;4.15;;;2.20;;
11805;SDS011;5960;42.602;23.482;2022-11-20T02:23:58;3.38;;;2.00;;
11805;SDS011;5960;42.602;23.482;2022-11-20T02:26:28;4.03;;;2.35;;
11805;SDS011;5960;42.602;23.482;2022-11-20T02:28:56;3.30;;;1.83;;
11805;SDS011;5960;42.602;23.482;2022-11-20T02:31:25;6.13;;;2.22;;
11805;SDS011;5960;42.602;23.482;2022-11-20T02:33:54;4.35;;;2.53;;
11805;SDS011;5960;42.602;23.482;2022-11-20T02:36:21;3.13;;;1.75;;
11805;SDS011;5960;42.602;23.482;2022-11-20T02:38:49;3.75;;;1.90;;
11805;SDS011;5960;42.602;23.482;2022-11-20T02:41:17;3.72;;;1.95;;
11805;SDS011;5960;42.602;23.482;2022-11-20T02:43:44;2.70;;;1.98;;
11805;SDS011;5960;42.602;23.482;2022-11-20T02:46:11;3.50;;;2.10;;
11805;SDS011;5960;42.602;23.482;2022-11-20T02:48:38;3.38;;;1.52;;
11805;SDS011;5960;42.602;23.482;2022-11-20T02:51:04;2.38;;;1.70;;
11805;SDS011;5960;42.602;23.482;2022-11-20T02:53:31;3.75;;;1.88;;
11805;SDS011;5960;42.602;23.482;2022-11-20T02:55:58;5.10;;;2.67;;
11805;SDS011;5960;42.602;23.482;2022-11-20T02:58:26;2.30;;;1.70;;
11805;SDS011;5960;42.602;23.482;2022-11-20T03:00:53;1.67;;;1.25;;
11805;SDS011;5960;42.602;23.482;2022-11-20T03:03:19;1.80;;;1.10;;
11805;SDS011;5960;42.602;23.482;2022-11-20T03:05:46;1.95;;;1.35;;
11805;SDS011;5960;42.602;23.482;2022-11-20T03:08:13;2.97;;;1.05;;
11805;SDS011;5960;42.602;23.482;2022-11-20T03:10:39;2.30;;;1.52;;
11805;SDS011;5960;42.602;23.482;2022-11-20T03:13:06;2.80;;;1.13;;
11805;SDS011;5960;42.602;23.482;2022-11-20T03:15:35;1.13;;;1.02;;
11805;SDS011;5960;42.602;23.482;2022-11-20T03:18:02;3.55;;;0.65;;
11805;SDS011;5960;42.602;23.482;2022-11-20T03:20:29;1.15;;;0.85;;
11805;SDS011;5960;42.602;23.482;2022-11-20T03:22:56;1.40;;;0.70;;
11805;SDS011;5960;42.602;23.482;2022-11-20T03:25:23;2.78;;;1.83;;
11805;SDS011;5960;42.602;23.482;2022-11-20T03:27:49;1.65;;;0.98;;
11805;SDS011;5960;42.602;23.482;2022-11-20T03:30:16;0.60;;;0.60;;
11805;SDS011;5960;42.602;23.482;2022-11-20T03:32:45;2.80;;;0.93;;
11805;SDS011;5960;42.602;23.482;2022-11-20T03:35:11;1.83;;;1.23;;
11805;SDS011;5960;42.602;23.482;2022-11-20T03:37:38;1.60;;;1.02;;
11805;SDS011;5960;42.602;23.482;2022-11-20T03:40:05;2.13;;;1.10;;
11805;SDS011;5960;42.602;23.482;2022-11-20T03:42:33;3.60;;;0.90;;
11805;SDS011;5960;42.602;23.482;2022-11-20T03:45:11;1.80;;;1.00;;
11805;SDS011;5960;42.602;23.482;2022-11-20T03:47:39;4.43;;;1.80;;
11805;SDS011;5960;42.602;23.482;2022-11-20T03:50:08;1.42;;;0.70;;
11805;SDS011;5960;42.602;23.482;2022-11-20T03:52:36;3.30;;;1.10;;
11805;SDS011;5960;42.602;23.482;2022-11-20T03:55:03;0.85;;;0.80;;
11805;SDS011;5960;42.602;23.482;2022-11-20T03:57:30;4.13;;;1.40;;
11805;SDS011;5960;42.602;23.482;2022-11-20T03:59:57;2.45;;;1.10;;
11805;SDS011;5960;42.602;23.482;2022-11-20T04:02:24;2.08;;;1.20;;
11805;SDS011;5960;42.602;23.482;2022-11-20T04:04:50;2.15;;;1.08;;
11805;SDS011;5960;42.602;23.482;2022-11-20T04:07:19;3.42;;;1.55;;
11805;SDS011;5960;42.602;23.482;2022-11-20T04:09:46;3.08;;;1.30;;
11805;SDS011;5960;42.602;23.482;2022-11-20T04:12:13;2.00;;;1.25;;
11805;SDS011;5960;42.602;23.482;2022-11-20T04:14:40;2.15;;;1.10;;
11805;SDS011;5960;42.602;23.482;2022-11-20T04:17:06;1.27;;;1.00;;
11805;SDS011;5960;42.602;23.482;2022-11-20T04:19:33;1.10;;;0.70;;
11805;SDS011;5960;42.602;23.482;2022-11-20T04:22:00;0.98;;;0.80;;
11805;SDS011;5960;42.602;23.482;2022-11-20T04:24:28;0.98;;;0.80;;
11805;SDS011;5960;42.602;23.482;2022-11-20T04:26:55;1.13;;;1.00;;
11805;SDS011;5960;42.602;23.482;2022-11-20T04:29:21;2.72;;;1.33;;
11805;SDS011;5960;42.602;23.482;2022-11-20T04:31:48;2.70;;;1.52;;
11805;SDS011;5960;42.602;23.482;2022-11-20T04:34:15;1.48;;;1.10;;
11805;SDS011;5960;42.602;23.482;2022-11-20T04:36:41;1.92;;;1.15;;
11805;SDS011;5960;42.602;23.482;2022-11-20T04:39:11;2.70;;;0.90;;
11805;SDS011;5960;42.602;23.482;2022-11-20T04:41:40;4.13;;;1.10;;
11805;SDS011;5960;42.602;23.482;2022-11-20T04:44:07;1.25;;;1.00;;
11805;SDS011;5960;42.602;23.482;2022-11-20T04:46:35;1.10;;;0.60;;
11805;SDS011;5960;42.602;23.482;2022-11-20T04:49:03;2.15;;;0.82;;
11805;SDS011;5960;42.602;23.482;2022-11-20T04:51:30;2.65;;;1.15;;
11805;SDS011;5960;42.602;23.482;2022-11-20T04:53:57;3.58;;;0.90;;
11805;SDS011;5960;42.602;23.482;2022-11-20T04:56:24;3.78;;;1.38;;
11805;SDS011;5960;42.602;23.482;2022-11-20T04:58:52;3.88;;;1.85;;
11805;SDS011;5960;42.602;23.482;2022-11-20T05:01:20;2.00;;;1.23;;
11805;SDS011;5960;42.602;23.482;2022-11-20T05:03:48;1.10;;;0.93;;
11805;SDS011;5960;42.602;23.482;2022-11-20T05:06:16;2.00;;;1.00;;
11805;SDS011;5960;42.602;23.482;2022-11-20T05:08:43;2.85;;;0.95;;
11805;SDS011;5960;42.602;23.482;2022-11-20T05:11:11;2.30;;;0.75;;
11805;SDS011;5960;42.602;23.482;2022-11-20T05:13:39;3.17;;;1.10;;
11805;SDS011;5960;42.602;23.482;2022-11-20T05:16:09;2.28;;;1.23;;
11805;SDS011;5960;42.602;23.482;2022-11-20T05:18:37;18.48;;;7.70;;
11805;SDS011;5960;42.602;23.482;2022-11-20T05:21:04;2.50;;;1.60;;
11805;SDS011;5960;42.602;23.482;2022-11-20T05:23:32;1.48;;;1.20;;
11805;SDS011;5960;42.602;23.482;2022-11-20T05:25:59;5.20;;;2.10;;
11805;SDS011;5960;42.602;23.482;2022-11-20T05:28:26;3.83;;;1.88;;
11805;SDS011;5960;42.602;23.482;2022-11-20T05:30:54;3.42;;;1.35;;
11805;SDS011;5960;42.602;23.482;2022-11-20T05:33:22;1.45;;;1.10;;
11805;SDS011;5960;42.602;23.482;2022-11-20T05:35:49;2.13;;;1.23;;
11805;SDS011;5960;42.602;23.482;2022-11-20T05:38:16;1.95;;;1.10;;
11805;SDS011;5960;42.602;23.482;2022-11-20T05:40:42;1.42;;;1.20;;
11805;SDS011;5960;42.602;23.482;2022-11-20T05:43:09;4.30;;;1.40;;
11805;SDS011;5960;42.602;23.482;2022-11-20T05:45:36;5.45;;;1.77;;
11805;SDS011;5960;42.602;23.482;2022-11-20T05:48:03;4.13;;;1.80;;
11805;SDS011;5960;42.602;23.482;2022-11-20T05:50:31;4.30;;;1.75;;
11805;SDS011;5960;42.602;23.482;2022-11-20T05:52:58;3.78;;;1.70;;
11805;SDS011;5960;42.602;23.482;2022-11-20T05:55:25;2.42;;;1.42;;
11805;SDS011;5960;42.602;23.482;2022-11-20T05:57:52;3.00;;;1.92;;
11805;SDS011;5960;42.602;23.482;2022-11-20T06:00:19;3.90;;;1.25;;
11805;SDS011;5960;42.602;23.482;2022-11-20T06:02:46;5.70;;;2.30;;
11805;SDS011;5960;42.602;23.482;2022-11-20T06:05:13;4.20;;;1.70;;
11805;SDS011;5960;42.602;23.482;2022-11-20T06:07:41;4.25;;;1.88;;
11805;SDS011;5960;42.602;23.482;2022-11-20T06:10:08;10.07;;;8.75;;
11805;SDS011;5960;42.602;23.482;2022-11-20T06:12:35;5.60;;;2.72;;
11805;SDS011;5960;42.602;23.482;2022-11-20T06:15:02;10.07;;;8.65;;
11805;SDS011;5960;42.602;23.482;2022-11-20T06:17:29;6.55;;;3.70;;
11805;SDS011;5960;42.602;23.482;2022-11-20T06:19:56;5.68;;;3.20;;
11805;SDS011;5960;42.602;23.482;2022-11-20T06:22:23;6.03;;;2.63;;
11805;SDS011;5960;42.602;23.482;2022-11-20T06:24:51;2.67;;;2.05;;
11805;SDS011;5960;42.602;23.482;2022-11-20T06:27:17;2.10;;;1.40;;
11805;SDS011;5960;42.602;23.482;2022-11-20T06:29:44;5.22;;;1.60;;
11805;SDS011;5960;42.602;23.482;2022-11-20T06:32:11;1.77;;;1.30;;
11805;SDS011;5960;42.602;23.482;2022-11-20T06:34:37;4.05;;;1.90;;
11805;SDS011;5960;42.602;23.482;2022-11-20T06:37:04;2.80;;;1.40;;
11805;SDS011;5960;42.602;23.482;2022-11-20T06:39:31;2.38;;;1.42;;
11805;SDS011;5960;42.602;23.482;2022-11-20T06:41:59;6.32;;;1.35;;
11805;SDS011;5960;42.602;23.482;2022-11-20T06:44:26;2.15;;;0.90;;
11805;SDS011;5960;42.602;23.482;2022-11-20T06:46:52;4.72;;;1.48;;
11805;SDS011;5960;42.602;23.482;2022-11-20T06:49:19;4.65;;;2.83;;
11805;SDS011;5960;42.602;23.482;2022-11-20T06:51:46;9.65;;;7.28;;
11805;SDS011;5960;42.602;23.482;2022-11-20T06:54:12;1.15;;;0.93;;
11805;SDS011;5960;42.602;23.482;2022-11-20T06:56:39;2.15;;;1.30;;
11805;SDS011;5960;42.602;23.482;2022-11-20T06:59:07;4.00;;;1.58;;
11805;SDS011;5960;42.602;23.482;2022-11-20T07:01:34;3.53;;;2.38;;
11805;SDS011;5960;42.602;23.482;2022-11-20T07:04:01;3.35;;;1.90;;
11805;SDS011;5960;42.602;23.482;2022-11-20T07:06:28;2.60;;;1.58;;
11805;SDS011;5960;42.602;23.482;2022-11-20T07:08:55;17.05;;;9.38;;
11805;SDS011;5960;42.602;23.482;2022-11-20T07:11:21;3.92;;;2.47;;
11805;SDS011;5960;42.602;23.482;2022-11-20T07:13:48;3.08;;;1.75;;
11805;SDS011;5960;42.602;23.482;2022-11-20T07:16:16;3.83;;;2.45;;
11805;SDS011;5960;42.602;23.482;2022-11-20T07:18:43;6.88;;;1.70;;
11805;SDS011;5960;42.602;23.482;2022-11-20T07:21:10;5.20;;;2.70;;
11805;SDS011;5960;42.602;23.482;2022-11-20T07:23:37;7.63;;;3.55;;
11805;SDS011;5960;42.602;23.482;2022-11-20T07:26:04;14.57;;;7.53;;
11805;SDS011;5960;42.602;23.482;2022-11-20T07:28:33;15.85;;;8.38;;
11805;SDS011;5960;42.602;23.482;2022-11-20T07:31:00;5.63;;;3.45;;
11805;SDS011;5960;42.602;23.482;2022-11-20T07:33:28;5.65;;;3.00;;
11805;SDS011;5960;42.602;23.482;2022-11-20T07:35:55;5.28;;;2.33;;
11805;SDS011;5960;42.602;23.482;2022-11-20T07:38:22;3.67;;;1.35;;
11805;SDS011;5960;42.602;23.482;2022-11-20T07:40:48;4.38;;;1.60;;
11805;SDS011;5960;42.602;23.482;2022-11-20T07:43:20;3.45;;;1.40;;
11805;SDS011;5960;42.602;23.482;2022-11-20T07:45:46;4.00;;;1.73;;
11805;SDS011;5960;42.602;23.482;2022-11-20T07:48:13;9.68;;;4.53;;
11805;SDS011;5960;42.602;23.482;2022-11-20T07:50:41;8.63;;;4.65;;
11805;SDS011;5960;42.602;23.482;2022-11-20T07:53:08;2.40;;;1.77;;
11805;SDS011;5960;42.602;23.482;2022-11-20T07:55:34;3.72;;;1.77;;
11805;SDS011;5960;42.602;23.482;2022-11-20T07:58:01;2.47;;;1.85;;
11805;SDS011;5960;42.602;23.482;2022-11-20T08:00:28;3.22;;;1.50;;
11805;SDS011;5960;42.602;23.482;2022-11-20T08:02:55;1.88;;;1.13;;
11805;SDS011;5960;42.602;23.482;2022-11-20T08:05:21;4.90;;;2.22;;
11805;SDS011;5960;42.602;23.482;2022-11-20T08:07:50;1.75;;;1.23;;
11805;SDS011;5960;42.602;23.482;2022-11-20T08:10:16;4.00;;;2.10;;
11805;SDS011;5960;42.602;23.482;2022-11-20T08:12:44;3.47;;;1.90;;
11805;SDS011;5960;42.602;23.482;2022-11-20T08:15:28;41.25;;;18.73;;
11805;SDS011;5960;42.602;23.482;2022-11-20T08:17:59;7.65;;;3.72;;
11805;SDS011;5960;42.602;23.482;2022-11-20T08:20:27;9.60;;;8.20;;
11805;SDS011;5960;42.602;23.482;2022-11-20T08:22:58;9.75;;;7.78;;
11805;SDS011;5960;42.602;23.482;2022-11-20T08:25:26;14.10;;;7.13;;
11805;SDS011;5960;42.602;23.482;2022-11-20T08:27:53;15.07;;;12.07;;
11805;SDS011;5960;42.602;23.482;2022-11-20T08:30:20;4.75;;;3.55;;
11805;SDS011;5960;42.602;23.482;2022-11-20T08:32:47;4.03;;;3.70;;
11805;SDS011;5960;42.602;23.482;2022-11-20T08:35:14;6.40;;;4.47;;
11805;SDS011;5960;42.602;23.482;2022-11-20T08:37:40;7.57;;;5.65;;
11805;SDS011;5960;42.602;23.482;2022-11-20T08:40:10;6.97;;;3.70;;
11805;SDS011;5960;42.602;23.482;2022-11-20T08:42:45;6.53;;;3.20;;
11805;SDS011;5960;42.602;23.482;2022-11-20T08:45:12;10.00;;;4.10;;
11805;SDS011;5960;42.602;23.482;2022-11-20T08:47:39;4.55;;;3.10;;
11805;SDS011;5960;42.602;23.482;2022-11-20T08:50:06;6.05;;;1.58;;
11805;SDS011;5960;42.602;23.482;2022-11-20T08:52:34;9.88;;;5.18;;
11805;SDS011;5960;42.602;23.482;2022-11-20T08:55:00;16.48;;;8.00;;
11805;SDS011;5960;42.602;23.482;2022-11-20T08:57:28;5.13;;;2.63;;
11805;SDS011;5960;42.602;23.482;2022-11-20T08:59:57;12.80;;;6.65;;
11805;SDS011;5960;42.602;23.482;2022-11-20T09:02:24;9.18;;;4.65;;
11805;SDS011;5960;42.602;23.482;2022-11-20T09:04:51;5.82;;;2.65;;
11805;SDS011;5960;42.602;23.482;2022-11-20T09:07:18;5.13;;;2.85;;
11805;SDS011;5960;42.602;23.482;2022-11-20T09:09:45;5.22;;;3.40;;
11805;SDS011;5960;42.602;23.482;2022-11-20T09:12:12;3.85;;;2.58;;
11805;SDS011;5960;42.602;23.482;2022-11-20T09:14:41;6.32;;;3.70;;
11805;SDS011;5960;42.602;23.482;2022-11-20T09:17:09;7.20;;;3.10;;
11805;SDS011;5960;42.602;23.482;2022-11-20T09:19:38;4.72;;;2.60;;
11805;SDS011;5960;42.602;23.482;2022-11-20T09:22:05;4.65;;;2.97;;
11805;SDS011;5960;42.602;23.482;2022-11-20T09:24:32;16.83;;;8.02;;
11805;SDS011;5960;42.602;23.482;2022-11-20T09:27:01;4.90;;;3.28;;
11805;SDS011;5960;42.602;23.482;2022-11-20T09:29:28;8.48;;;4.85;;
11805;SDS011;5960;42.602;23.482;2022-11-20T09:31:56;19.35;;;8.88;;
11805;SDS011;5960;42.602;23.482;2022-11-20T09:34:23;15.07;;;8.00;;
11805;SDS011;5960;42.602;23.482;2022-11-20T09:36:50;17.63;;;8.13;;
11805;SDS011;5960;42.602;23.482;2022-11-20T09:39:16;37.40;;;15.38;;
11805;SDS011;5960;42.602;23.482;2022-11-20T09:44:45;56.67;;;23.08;;
11805;SDS011;5960;42.602;23.482;2022-11-20T09:47:31;12.15;;;5.75;;
11805;SDS011;5960;42.602;23.482;2022-11-20T09:50:14;27.73;;;12.30;;
11805;SDS011;5960;42.602;23.482;2022-11-20T09:52:53;26.83;;;13.23;;
11805;SDS011;5960;42.602;23.482;2022-11-20T09:55:27;35.38;;;15.02;;
11805;SDS011;5960;42.602;23.482;2022-11-20T09:57:56;56.92;;;25.25;;
11805;SDS011;5960;42.602;23.482;2022-11-20T10:00:25;35.10;;;18.55;;
11805;SDS011;5960;42.602;23.482;2022-11-20T10:02:58;48.70;;;22.20;;
11805;SDS011;5960;42.602;23.482;2022-11-20T10:05:28;43.47;;;22.27;;
11805;SDS011;5960;42.602;23.482;2022-11-20T10:08:04;12.23;;;8.88;;
11805;SDS011;5960;42.602;23.482;2022-11-20T10:10:42;22.02;;;10.13;;
11805;SDS011;5960;42.602;23.482;2022-11-20T10:13:17;18.35;;;9.00;;
11805;SDS011;5960;42.602;23.482;2022-11-20T10:15:57;54.45;;;23.13;;
11805;SDS011;5960;42.602;23.482;2022-11-20T10:18:36;25.23;;;10.27;;
11805;SDS011;5960;42.602;23.482;2022-11-20T10:21:14;22.92;;;9.15;;
11805;SDS011;5960;42.602;23.482;2022-11-20T10:26:53;26.23;;;10.65;;
11805;SDS011;5960;42.602;23.482;2022-11-20T10:29:29;24.02;;;10.43;;
11805;SDS011;5960;42.602;23.482;2022-11-20T10:32:00;14.55;;;6.70;;
11805;SDS011;5960;42.602;23.482;2022-11-20T10:34:31;43.63;;;18.73;;
11805;SDS011;5960;42.602;23.482;2022-11-20T10:37:06;24.15;;;10.63;;
11805;SDS011;5960;42.602;23.482;2022-11-20T10:39:39;18.80;;;9.63;;
11805;SDS011;5960;42.602;23.482;2022-11-20T10:42:11;25.88;;;9.65;;
11805;SDS011;5960;42.602;23.482;2022-11-20T10:44:42;39.05;;;18.10;;
11805;SDS011;5960;42.602;23.482;2022-11-20T10:47:30;26.98;;;14.32;;
11805;SDS011;5960;42.602;23.482;2022-11-20T10:50:01;20.05;;;10.43;;
11805;SDS011;5960;42.602;23.482;2022-11-20T10:52:32;20.08;;;9.98;;
11805;SDS011;5960;42.602;23.482;2022-11-20T10:55:06;11.68;;;3.72;;
11805;SDS011;5960;42.602;23.482;2022-11-20T10:57:52;40.13;;;17.65;;
11805;SDS011;5960;42.602;23.482;2022-11-20T11:00:30;7.90;;;4.20;;
11805;SDS011;5960;42.602;23.482;2022-11-20T11:02:57;10.73;;;3.92;;
11805;SDS011;5960;42.602;23.482;2022-11-20T11:05:32;10.13;;;5.82;;
11805;SDS011;5960;42.602;23.482;2022-11-20T11:08:04;8.45;;;3.25;;
11805;SDS011;5960;42.602;23.482;2022-11-20T11:10:39;8.73;;;5.43;;
11805;SDS011;5960;42.602;23.482;2022-11-20T11:13:18;10.75;;;4.25;;
11805;SDS011;5960;42.602;23.482;2022-11-20T11:15:46;8.45;;;5.53;;
11805;SDS011;5960;42.602;23.482;2022-11-20T11:18:22;10.82;;;6.05;;
11805;SDS011;5960;42.602;23.482;2022-11-20T11:20:51;7.40;;;5.55;;
11805;SDS011;5960;42.602;23.482;2022-11-20T11:23:25;9.40;;;5.28;;
11805;SDS011;5960;42.602;23.482;2022-11-20T11:25:58;10.40;;;5.35;;
11805;SDS011;5960;42.602;23.482;2022-11-20T11:28:25;10.20;;;4.68;;
11805;SDS011;5960;42.602;23.482;2022-11-20T11:30:54;8.15;;;4.35;;
11805;SDS011;5960;42.602;23.482;2022-11-20T11:33:21;7.18;;;3.20;;
11805;SDS011;5960;42.602;23.482;2022-11-20T11:35:51;6.03;;;2.85;;
11805;SDS011;5960;42.602;23.482;2022-11-20T11:38:23;4.07;;;2.58;;
11805;SDS011;5960;42.602;23.482;2022-11-20T11:40:55;6.97;;;2.85;;
11805;SDS011;5960;42.602;23.482;2022-11-20T11:43:24;6.55;;;3.92;;
11805;SDS011;5960;42.602;23.482;2022-11-20T11:46:20;17.15;;;9.27;;
11805;SDS011;5960;42.602;23.482;2022-11-20T11:48:59;37.05;;;15.52;;
11805;SDS011;5960;42.602;23.482;2022-11-20T11:51:30;17.58;;;9.63;;
11805;SDS011;5960;42.602;23.482;2022-11-20T11:54:00;18.45;;;9.63;;
11805;SDS011;5960;42.602;23.482;2022-11-20T11:56:40;8.30;;;3.58;;
11805;SDS011;5960;42.602;23.482;2022-11-20T11:59:09;5.75;;;2.65;;
11805;SDS011;5960;42.602;23.482;2022-11-20T12:01:42;9.30;;;4.63;;
11805;SDS011;5960;42.602;23.482;2022-11-20T12:04:14;4.43;;;2.33;;
11805;SDS011;5960;42.602;23.482;2022-11-20T12:06:50;10.88;;;3.88;;
11805;SDS011;5960;42.602;23.482;2022-11-20T12:09:23;6.18;;;3.03;;
11805;SDS011;5960;42.602;23.482;2022-11-20T12:11:54;5.40;;;2.72;;
11805;SDS011;5960;42.602;23.482;2022-11-20T12:14:28;6.85;;;3.38;;
11805;SDS011;5960;42.602;23.482;2022-11-20T12:17:00;5.97;;;2.30;;
11805;SDS011;5960;42.602;23.482;2022-11-20T12:19:28;6.30;;;3.03;;
11805;SDS011;5960;42.602;23.482;2022-11-20T12:22:00;4.10;;;2.40;;
11805;SDS011;5960;42.602;23.482;2022-11-20T12:24:39;7.50;;;3.35;;
11805;SDS011;5960;42.602;23.482;2022-11-20T12:27:19;8.77;;;5.13;;
11805;SDS011;5960;42.602;23.482;2022-11-20T12:30:06;14.95;;;8.15;;
11805;SDS011;5960;42.602;23.482;2022-11-20T12:32:39;8.15;;;4.28;;
11805;SDS011;5960;42.602;23.482;2022-11-20T12:35:29;15.18;;;6.70;;
11805;SDS011;5960;42.602;23.482;2022-11-20T13:24:27;11.60;;;5.65;;
11805;SDS011;5960;42.602;23.482;2022-11-20T13:27:02;17.15;;;9.32;;
11805;SDS011;5960;42.602;23.482;2022-11-20T13:29:30;5.25;;;3.00;;
11805;SDS011;5960;42.602;23.482;2022-11-20T13:32:02;28.85;;;13.25;;
11805;SDS011;5960;42.602;23.482;2022-11-20T13:34:31;6.72;;;3.33;;
11805;SDS011;5960;42.602;23.482;2022-11-20T13:36:59;8.05;;;3.92;;
11805;SDS011;5960;42.602;23.482;2022-11-20T13:39:30;3.45;;;2.17;;
11805;SDS011;5960;42.602;23.482;2022-11-20T13:42:00;2.90;;;1.67;;
11805;SDS011;5960;42.602;23.482;2022-11-20T13:44:33;87.70;;;27.45;;
11805;SDS011;5960;42.602;23.482;2022-11-20T13:47:03;21.95;;;9.38;;
11805;SDS011;5960;42.602;23.482;2022-11-20T13:49:43;63.58;;;25.83;;
11805;SDS011;5960;42.602;23.482;2022-11-20T13:52:22;37.50;;;16.80;;
11805;SDS011;5960;42.602;23.482;2022-11-20T13:55:12;36.30;;;16.42;;
11805;SDS011;5960;42.602;23.482;2022-11-20T13:57:51;26.67;;;13.93;;
11805;SDS011;5960;42.602;23.482;2022-11-20T14:00:27;15.98;;;8.05;;
11805;SDS011;5960;42.602;23.482;2022-11-20T14:03:07;7.95;;;3.90;;
11805;SDS011;5960;42.602;23.482;2022-11-20T14:05:40;21.88;;;16.38;;
11805;SDS011;5960;42.602;23.482;2022-11-20T14:08:18;17.30;;;10.18;;
11805;SDS011;5960;42.602;23.482;2022-11-20T14:11:01;11.57;;;7.47;;
11805;SDS011;5960;42.602;23.482;2022-11-20T14:13:29;8.70;;;6.18;;
11805;SDS011;5960;42.602;23.482;2022-11-20T14:15:56;25.45;;;13.45;;
11805;SDS011;5960;42.602;23.482;2022-11-20T14:18:25;32.90;;;21.45;;
11805;SDS011;5960;42.602;23.482;2022-11-20T14:20:52;21.30;;;10.57;;
11805;SDS011;5960;42.602;23.482;2022-11-20T14:23:25;11.48;;;5.57;;
11805;SDS011;5960;42.602;23.482;2022-11-20T14:25:54;26.42;;;12.15;;
11805;SDS011;5960;42.602;23.482;2022-11-20T14:28:24;24.08;;;10.77;;
11805;SDS011;5960;42.602;23.482;2022-11-20T14:30:53;29.05;;;16.63;;
11805;SDS011;5960;42.602;23.482;2022-11-20T14:33:20;26.33;;;12.05;;
11805;SDS011;5960;42.602;23.482;2022-11-20T14:35:50;14.55;;;8.27;;
11805;SDS011;5960;42.602;23.482;2022-11-20T14:38:21;24.75;;;13.13;;
11805;SDS011;5960;42.602;23.482;2022-11-20T14:40:51;20.00;;;11.45;;
11805;SDS011;5960;42.602;23.482;2022-11-20T14:43:21;27.23;;;15.70;;
11805;SDS011;5960;42.602;23.482;2022-11-20T14:45:52;74.43;;;28.65;;
11805;SDS011;5960;42.602;23.482;2022-11-20T14:48:24;38.17;;;20.33;;
11805;SDS011;5960;42.602;23.482;2022-11-20T14:50:56;38.55;;;22.98;;
11805;SDS011;5960;42.602;23.482;2022-11-20T14:53:23;27.77;;;16.30;;
11805;SDS011;5960;42.602;23.482;2022-11-20T14:55:55;27.70;;;16.20;;
11805;SDS011;5960;42.602;23.482;2022-11-20T14:58:25;48.25;;;24.48;;
11805;SDS011;5960;42.602;23.482;2022-11-20T15:00:54;114.55;;;51.78;;
11805;SDS011;5960;42.602;23.482;2022-11-20T15:03:22;27.10;;;14.50;;
11805;SDS011;5960;42.602;23.482;2022-11-20T15:05:49;31.73;;;16.40;;
11805;SDS011;5960;42.602;23.482;2022-11-20T15:08:17;36.63;;;19.55;;
11805;SDS011;5960;42.602;23.482;2022-11-20T15:10:47;26.80;;;12.90;;
11805;SDS011;5960;42.602;23.482;2022-11-20T15:13:16;20.85;;;11.02;;
11805;SDS011;5960;42.602;23.482;2022-11-20T15:15:50;16.92;;;11.82;;
11805;SDS011;5960;42.602;23.482;2022-11-20T15:18:19;18.98;;;12.73;;
11805;SDS011;5960;42.602;23.482;2022-11-20T15:20:47;44.40;;;34.75;;
11805;SDS011;5960;42.602;23.482;2022-11-20T15:23:16;18.90;;;13.52;;
11805;SDS011;5960;42.602;23.482;2022-11-20T15:25:45;21.05;;;14.23;;
11805;SDS011;5960;42.602;23.482;2022-11-20T15:28:15;22.88;;;13.98;;
11805;SDS011;5960;42.602;23.482;2022-11-20T15:30:44;30.73;;;17.13;;
11805;SDS011;5960;42.602;23.482;2022-11-20T15:33:12;26.38;;;15.30;;
11805;SDS011;5960;42.602;23.482;2022-11-20T15:35:40;25.33;;;13.27;;
11805;SDS011;5960;42.602;23.482;2022-11-20T15:38:06;27.88;;;15.55;;
11805;SDS011;5960;42.602;23.482;2022-11-20T15:40:33;23.88;;;14.60;;
11805;SDS011;5960;42.602;23.482;2022-11-20T15:43:00;18.38;;;10.13;;
11805;SDS011;5960;42.602;23.482;2022-11-20T15:45:32;15.30;;;8.30;;
11805;SDS011;5960;42.602;23.482;2022-11-20T15:48:04;32.75;;;18.38;;
11805;SDS011;5960;42.602;23.482;2022-11-20T15:50:38;46.22;;;27.13;;